Time;durP1;ratioP1;P1;durP2;ratioP2;P2;SDS_P1;SDS_P2;PMS_P1;PMS_P2;Temp;Humidity;BMP_temperature;BMP_pressure;BME280_temperature;BME280_humidity;BME280_pressure;Samples;Min_cycle;Max_cycle;Signal;HPM_P1;HPM_P2
2024/04/04 07:15:09;;;;;;;0.90;0.70;;;;;;;12.88;100.00;98331.63;5108327;28;20555;-76
2024/04/04 07:17:36;;;;;;;1.20;0.77;;;;;;;13.85;100.00;98321.91;5107120;28;39257;-76
2024/04/04 07:20:05;;;;;;;3.07;0.83;;;;;;;14.79;100.00;98323.56;5107696;28;42729;-76
2024/04/04 07:22:32;;;;;;;2.20;0.80;;;;;;;15.39;100.00;98333.25;5090247;28;41849;-75
2024/04/04 07:24:59;;;;;;;2.17;0.90;;;;;;;16.33;100.00;98332.50;5107535;28;41174;-77
2024/04/04 07:27:26;;;;;;;1.20;0.60;;;;;;;17.04;100.00;98332.81;5107445;28;40621;-76
2024/04/04 07:29:55;;;;;;;1.67;0.73;;;;;;;17.52;93.62;98340.53;5090072;28;40611;-76
2024/04/04 07:32:23;;;;;;;2.10;0.80;;;;;;;17.53;91.01;98344.91;5106907;28;44226;-76
2024/04/04 07:34:50;;;;;;;1.23;0.60;;;;;;;17.49;87.75;98353.38;5089942;28;42448;-76
2024/04/04 07:37:17;;;;;;;1.83;0.70;;;;;;;17.36;87.02;98351.06;5108407;28;40790;-76
2024/04/04 07:39:44;;;;;;;2.47;0.80;;;;;;;17.35;86.50;98354.72;5089921;28;42408;-76
2024/04/04 07:42:11;;;;;;;1.37;0.60;;;;;;;17.62;86.16;98358.34;5107150;28;42630;-76
2024/04/04 07:44:39;;;;;;;1.13;0.70;;;;;;;18.33;81.77;98347.59;5123970;27;41113;-76
2024/04/04 07:47:05;;;;;;;2.37;1.07;;;;;;;18.62;76.53;98351.69;5108391;28;39851;-77
2024/04/04 07:49:34;;;;;;;2.97;0.83;;;;;;;19.09;73.13;98370.03;5106826;28;42182;-77
2024/04/04 07:52:01;;;;;;;1.47;0.80;;;;;;;19.59;74.62;98351.25;5106863;28;42863;-77
2024/04/04 07:54:29;;;;;;;2.80;1.00;;;;;;;20.20;71.58;98365.25;5090108;28;41672;-77
2024/04/04 07:56:55;;;;;;;1.90;0.90;;;;;;;20.03;68.10;98377.81;5123869;27;40120;-76
2024/04/04 07:59:26;;;;;;;3.23;0.77;;;;;;;19.66;67.66;98373.75;5140743;27;42907;-77
2024/04/04 08:01:53;;;;;;;2.30;0.77;;;;;;;19.67;65.67;98375.44;5106960;28;42594;-77
2024/04/04 08:04:21;;;;;;;2.13;0.60;;;;;;;20.02;67.56;98374.34;5107812;28;42924;-77
2024/04/04 08:06:49;;;;;;;1.07;0.60;;;;;;;20.11;67.19;98367.09;5141289;27;39762;-76
2024/04/04 08:09:17;;;;;;;3.13;0.63;;;;;;;19.70;63.29;98375.13;5123826;27;40986;-76
2024/04/04 08:11:45;;;;;;;1.73;0.80;;;;;;;19.29;63.39;98384.03;5107794;28;43945;-76
2024/04/04 08:14:12;;;;;;;3.40;0.80;;;;;;;19.24;65.26;98379.16;5105493;28;42046;-76
2024/04/04 08:16:38;;;;;;;2.20;0.83;;;;;;;19.25;66.12;98380.84;5089725;28;39954;-75
2024/04/04 08:19:07;;;;;;;2.03;0.60;;;;;;;19.12;64.99;98379.59;5089027;28;43227;-75
2024/04/04 08:21:33;;;;;;;2.93;1.03;;;;;;;19.01;66.10;98378.91;5123365;27;42791;-76
2024/04/04 08:24:02;;;;;;;5.50;0.87;;;;;;;19.10;66.83;98373.56;5123275;27;41147;-75
2024/04/04 08:26:29;;;;;;;3.17;0.90;;;;;;;19.17;65.45;98366.53;5075536;28;38875;-76
2024/04/04 08:28:57;;;;;;;1.70;0.87;;;;;;;19.07;64.03;98365.81;5109363;28;40697;-76
2024/04/04 08:31:23;;;;;;;1.27;0.77;;;;;;;19.06;62.51;98381.06;5093962;28;42392;-75
2024/04/04 08:33:50;;;;;;;1.03;0.60;;;;;;;18.88;62.58;98367.75;5075837;28;41343;-76
2024/04/04 08:36:17;;;;;;;2.03;0.80;;;;;;;18.69;62.04;98378.69;5110091;28;38732;-77
2024/04/04 08:38:45;;;;;;;2.97;0.97;;;;;;;18.64;63.24;98381.03;5092805;28;42494;-75
2024/04/04 08:41:13;;;;;;;1.87;0.93;;;;;;;18.61;64.67;98366.09;5091999;28;41746;-79
2024/04/04 08:43:41;;;;;;;1.83;0.87;;;;;;;18.45;64.29;98370.47;5093071;28;42939;-77
2024/04/04 08:46:08;;;;;;;1.93;0.70;;;;;;;18.25;64.67;98364.47;5074576;28;39131;-76
2024/04/04 08:48:36;;;;;;;2.70;1.00;;;;;;;18.41;64.94;98371.81;5075778;28;41135;-76
2024/04/04 08:51:03;;;;;;;1.10;0.53;;;;;;;18.36;64.09;98372.25;5075988;28;42054;-76
2024/04/04 08:53:31;;;;;;;2.33;0.53;;;;;;;18.30;64.55;98379.06;5126630;27;42811;-76
2024/04/04 08:55:59;;;;;;;0.90;0.60;;;;;;;18.21;65.98;98369.28;5093184;28;39867;-76
2024/04/04 08:58:28;;;;;;;1.63;1.00;;;;;;;18.15;65.47;98375.28;5109045;28;40783;-76
2024/04/04 09:00:55;;;;;;;1.63;0.60;;;;;;;18.13;65.18;98377.28;5092383;28;42977;-76
2024/04/04 09:03:22;;;;;;;2.23;0.77;;;;;;;18.01;66.17;98373.16;5109451;28;42068;-76
2024/04/04 09:05:50;;;;;;;0.77;0.60;;;;;;;18.09;66.00;98389.31;5092674;28;40375;-76
2024/04/04 09:08:17;;;;;;;2.17;0.80;;;;;;;18.23;66.17;98370.00;5126542;27;41657;-78
2024/04/04 09:10:45;;;;;;;2.03;0.70;;;;;;;18.29;66.61;98382.78;5075792;28;42345;-76
2024/04/04 09:13:13;;;;;;;2.77;0.73;;;;;;;18.24;66.47;98374.34;5108593;28;41242;-77
2024/04/04 09:15:41;;;;;;;3.37;0.80;;;;;;;18.14;67.93;98368.25;5075317;28;39808;-77
2024/04/04 09:18:10;;;;;;;1.50;0.70;;;;;;;18.02;67.47;98382.88;5109587;28;40571;-77
2024/04/04 09:20:38;;;;;;;1.30;0.60;;;;;;;17.83;69.82;98364.28;5076010;28;41753;-80
2024/04/04 09:23:07;;;;;;;2.30;0.67;;;;;;;17.80;70.72;98369.97;5092657;28;43145;-81
2024/04/04 09:25:34;;;;;;;2.87;0.67;;;;;;;17.73;71.59;98353.66;5109872;28;40092;-77
2024/04/04 09:28:03;;;;;;;0.70;0.70;;;;;;;17.87;70.00;98349.59;5092141;28;42016;-76
2024/04/04 09:30:32;;;;;;;2.77;0.70;;;;;;;17.99;69.64;98359.06;5126288;27;42878;-78
2024/04/04 09:33:03;;;;;;;2.13;0.60;;;;;;;18.05;68.93;98362.97;5074665;28;42526;-77
2024/04/04 09:35:33;;;;;;;1.73;0.90;;;;;;;18.22;68.24;98370.13;5088956;28;39865;-77
2024/04/04 09:38:03;;;;;;;0.57;0.50;;;;;;;18.40;67.88;98364.75;5124633;27;41800;-77
2024/04/04 09:40:29;;;;;;;2.17;0.80;;;;;;;18.40;66.67;98346.00;5126609;27;42931;-77
2024/04/04 09:42:58;;;;;;;1.27;0.70;;;;;;;18.54;66.25;98367.72;5093227;28;42224;-78
2024/04/04 09:45:26;;;;;;;1.03;0.53;;;;;;;18.64;65.43;98370.31;5074901;28;38962;-77
2024/04/04 09:47:53;;;;;;;1.97;0.90;;;;;;;18.70;65.37;98379.53;5092013;28;41734;-77
2024/04/04 09:50:21;;;;;;;2.83;0.70;;;;;;;18.57;64.80;98369.22;5092058;28;42977;-77
2024/04/04 09:52:49;;;;;;;2.20;0.60;;;;;;;18.63;66.09;98374.00;5074681;28;41973;-78
2024/04/04 09:55:18;;;;;;;1.67;0.77;;;;;;;18.30;67.05;98363.00;5075067;28;38861;-78
2024/04/04 09:57:47;;;;;;;1.23;0.70;;;;;;;18.29;67.37;98366.69;5091512;28;42952;-78
2024/04/04 10:00:16;;;;;;;1.90;0.70;;;;;;;18.23;68.62;98372.66;5125786;27;44040;-78
2024/04/04 10:02:47;;;;;;;1.77;0.50;;;;;;;17.90;68.68;98319.81;5074811;28;42093;-78
2024/04/04 10:05:16;;;;;;;2.27;0.90;;;;;;;18.16;69.49;98368.94;5088941;28;39778;-78
2024/04/04 10:07:45;;;;;;;2.23;0.80;;;;;;;18.05;69.22;98363.78;5074436;28;40638;-79
2024/04/04 10:10:16;;;;;;;1.87;0.93;;;;;;;17.80;68.70;98361.94;5125799;27;43207;-80
2024/04/04 10:12:45;;;;;;;1.60;0.80;;;;;;;17.72;69.56;98357.31;5091086;28;43246;-79
2024/04/04 10:15:16;;;;;;;2.80;0.90;;;;;;;17.81;70.96;98359.06;5074393;28;39082;-77
2024/04/04 10:17:49;;;;;;;2.97;1.00;;;;;;;17.70;71.07;98337.03;5108560;28;40903;-77
2024/04/04 10:20:16;;;;;;;1.73;0.70;;;;;;;18.03;70.08;98360.47;5074813;28;43349;-80
2024/04/04 10:22:45;;;;;;;3.23;0.80;;;;;;;18.25;67.49;98373.34;5091299;28;43201;-77
2024/04/04 10:25:23;;;;;;;2.40;0.93;;;;;;;18.39;66.57;98371.97;5091418;28;40421;-77
2024/04/04 10:28:04;;;;;;;0.90;0.77;;;;;;;18.30;65.57;98368.34;5122220;27;43272;-79
2024/04/04 10:30:34;;;;;;;1.67;0.53;;;;;;;18.31;65.13;98388.81;5091168;28;43698;-78
2024/04/04 10:33:09;;;;;;;2.53;0.80;;;;;;;18.53;64.26;98381.28;5074022;28;41063;-81
2024/04/04 10:35:35;;;;;;;1.17;0.70;;;;;;;18.52;64.61;98390.31;5125673;27;39973;-78
2024/04/04 10:38:08;;;;;;;1.63;0.60;;;;;;;18.44;64.93;98379.50;5091133;28;42658;-78
2024/04/04 10:40:35;;;;;;;3.40;0.97;;;;;;;18.29;64.02;98382.78;5122294;27;43760;-78
2024/04/04 10:43:04;;;;;;;2.73;0.70;;;;;;;17.97;64.80;98366.41;5091141;28;41888;-81
2024/04/04 10:45:30;;;;;;;2.77;0.60;;;;;;;17.90;66.37;98370.72;5074470;28;39283;-78
2024/04/04 10:47:58;;;;;;;1.93;0.73;;;;;;;17.85;68.26;98378.38;5124651;27;42814;-79
2024/04/04 10:50:26;;;;;;;2.73;0.80;;;;;;;17.91;69.08;98369.72;5125227;27;43021;-79
2024/04/04 10:52:54;;;;;;;1.60;0.80;;;;;;;17.94;67.77;98374.75;5107847;28;41015;-80
2024/04/04 10:55:23;;;;;;;2.83;0.97;;;;;;;17.95;67.31;98371.94;5108102;28;38916;-79
2024/04/04 10:57:53;;;;;;;1.30;0.70;;;;;;;18.43;65.43;98373.31;5091003;28;42773;-81
2024/04/04 11:00:22;;;;;;;2.17;0.80;;;;;;;19.20;63.30;98390.38;5090852;28;43840;-81
2024/04/04 11:02:51;;;;;;;3.33;0.80;;;;;;;19.40;62.21;98382.91;5074102;28;41456;-79
2024/04/04 11:05:18;;;;;;;2.07;0.80;;;;;;;19.46;61.21;98399.19;5091012;28;39822;-80
2024/04/04 11:07:46;;;;;;;2.73;0.90;;;;;;;19.32;61.73;98400.66;5074145;28;40413;-79
2024/04/04 11:10:14;;;;;;;3.20;0.97;;;;;;;19.05;62.25;98378.56;5073911;28;45068;-80
2024/04/04 11:12:44;;;;;;;3.50;0.70;;;;;;;18.88;62.12;98388.38;5090522;28;41936;-81
2024/04/04 11:15:11;;;;;;;2.00;0.73;;;;;;;18.53;63.57;98389.31;5087921;28;40305;-80
2024/04/04 11:17:42;;;;;;;2.53;0.90;;;;;;;18.23;65.25;98393.25;5124713;27;41724;-82
2024/04/04 11:20:08;;;;;;;2.13;0.80;;;;;;;18.14;66.86;98389.69;5107408;28;42003;-78
2024/04/04 11:22:37;;;;;;;2.00;0.90;;;;;;;18.17;67.90;98378.66;5107011;28;43643;-78
2024/04/04 11:25:05;;;;;;;3.90;1.20;;;;;;;18.05;66.92;98395.94;5090699;28;40050;-78
2024/04/04 11:27:33;;;;;;;2.70;0.90;;;;;;;17.91;67.73;98400.03;5073619;28;41169;-79
2024/04/04 11:30:01;;;;;;;2.33;0.90;;;;;;;17.65;68.87;98399.09;5124756;27;43601;-80
2024/04/04 11:32:30;;;;;;;1.43;0.90;;;;;;;17.33;69.88;98386.16;5124677;27;42655;-81
2024/04/04 11:34:57;;;;;;;1.90;0.70;;;;;;;17.29;71.36;98391.97;5090644;28;40858;-79
2024/04/04 11:37:25;;;;;;;2.03;0.77;;;;;;;17.14;73.21;98395.13;5107705;28;40624;-79
2024/04/04 11:39:52;;;;;;;4.53;1.10;;;;;;;17.22;74.59;98381.84;5073538;28;43175;-79
2024/04/04 11:42:20;;;;;;;2.87;1.10;;;;;;;17.36;74.01;98393.88;5076933;28;42773;-79
2024/04/04 11:44:47;;;;;;;2.10;0.77;;;;;;;17.42;73.81;98404.00;5075235;28;38987;-79
2024/04/04 11:47:16;;;;;;;2.13;0.67;;;;;;;17.35;74.59;98386.00;5107256;28;40263;-78
2024/04/04 11:49:42;;;;;;;2.47;0.90;;;;;;;17.27;75.20;98384.09;5124300;27;42711;-79
2024/04/04 11:52:10;;;;;;;2.07;0.80;;;;;;;17.24;75.83;98384.38;5090514;28;42122;-79
2024/04/04 11:54:36;;;;;;;2.57;0.90;;;;;;;17.10;75.65;98388.38;5090032;28;39960;-78
2024/04/04 11:57:05;;;;;;;2.33;1.00;;;;;;;17.15;75.99;98390.63;5073355;28;41861;-79
2024/04/04 11:59:31;;;;;;;1.53;0.70;;;;;;;17.40;76.57;98389.09;5089741;28;43955;-79
2024/04/04 12:01:59;;;;;;;2.23;0.70;;;;;;;17.47;76.54;98385.66;5128151;27;42220;-77
2024/04/04 12:04:26;;;;;;;2.03;1.10;;;;;;;17.46;76.59;98383.97;5093675;28;41199;-78
2024/04/04 12:06:54;;;;;;;1.63;0.50;;;;;;;17.63;75.82;98389.50;5110810;28;40933;-79
2024/04/04 12:09:21;;;;;;;1.27;0.70;;;;;;;17.76;74.88;98374.78;5093743;28;43742;-78
2024/04/04 12:11:48;;;;;;;2.10;0.70;;;;;;;18.12;73.42;98386.31;5110758;28;41580;-78
2024/04/04 12:14:15;;;;;;;1.10;0.63;;;;;;;18.49;72.02;98393.31;5127109;27;41134;-79
2024/04/04 12:16:50;;;;;;;2.20;1.00;;;;;;;18.69;70.49;98370.66;5076379;28;40391;-79
2024/04/04 12:19:26;;;;;;;1.40;0.73;;;;;;;18.74;68.71;98387.13;5076529;28;41715;-79
2024/04/04 12:21:55;;;;;;;1.80;0.70;;;;;;;18.45;69.74;98391.91;5110324;28;41206;-79
2024/04/04 12:24:23;;;;;;;2.50;0.80;;;;;;;18.13;70.40;98387.16;5075703;28;40016;-79
2024/04/04 12:26:59;;;;;;;0.73;0.60;;;;;;;17.94;72.78;98372.06;5090105;28;41826;-78
2024/04/04 12:29:26;;;;;;;1.30;0.60;;;;;;;17.76;73.57;98384.66;5093195;28;44282;-81
2024/04/04 12:31:54;;;;;;;3.53;0.80;;;;;;;17.57;74.66;98358.81;5093469;28;42561;-78
2024/04/04 12:34:22;;;;;;;3.13;0.73;;;;;;;17.41;76.40;98362.19;5076225;28;39151;-78
2024/04/04 12:36:49;;;;;;;1.60;0.90;;;;;;;17.46;77.01;98362.53;5093095;28;42670;-78
2024/04/04 12:39:19;;;;;;;2.63;0.90;;;;;;;17.50;77.59;98345.19;5092372;28;41832;-79
2024/04/04 12:41:46;;;;;;;3.27;0.73;;;;;;;17.49;77.33;98324.75;5094049;28;42617;-78
2024/04/04 12:44:13;;;;;;;2.63;1.23;;;;;;;17.76;76.47;98331.09;5075654;28;41758;-79
2024/04/04 12:46:40;;;;;;;1.57;0.80;;;;;;;17.89;74.98;98352.97;5092602;28;42484;-78
2024/04/04 12:49:08;;;;;;;3.00;0.80;;;;;;;17.88;75.56;98348.59;5108855;28;43510;-79
2024/04/04 12:51:34;;;;;;;1.77;0.77;;;;;;;18.13;76.17;98344.28;5074723;28;41034;-77
2024/04/04 12:54:08;;;;;;;5.03;0.83;;;;;;;18.13;75.85;98336.25;5108171;28;40017;-79
2024/04/04 12:56:36;;;;;;;3.67;0.90;;;;;;;18.04;75.94;98340.72;5074384;28;40548;-78
2024/04/04 12:59:03;;;;;;;2.50;0.63;;;;;;;17.85;76.57;98340.84;5074002;28;42237;-78
2024/04/04 13:01:30;;;;;;;1.63;0.80;;;;;;;17.73;77.68;98342.09;5091261;28;42195;-78
2024/04/04 13:03:57;;;;;;;3.20;1.10;;;;;;;17.52;78.33;98335.19;5074134;28;41605;-79
2024/04/04 13:06:24;;;;;;;2.43;0.80;;;;;;;17.34;79.13;98330.78;5091710;28;42743;-78
2024/04/04 13:08:52;;;;;;;2.87;0.93;;;;;;;17.20;81.88;98332.13;5108818;28;41914;-79
2024/04/04 13:11:19;;;;;;;2.73;0.93;;;;;;;17.00;81.61;98317.19;5092784;28;41965;-78
2024/04/04 13:13:49;;;;;;;1.80;0.80;;;;;;;16.87;83.25;98329.09;5092411;28;40861;-80
2024/04/04 13:16:16;;;;;;;1.97;0.73;;;;;;;16.78;83.31;98324.63;5076325;28;40668;-79
2024/04/04 13:18:44;;;;;;;2.67;0.90;;;;;;;16.72;84.57;98319.03;5093651;28;43685;-79
2024/04/04 13:21:10;;;;;;;2.00;0.90;;;;;;;16.68;85.74;98328.34;5076003;28;41491;-82
2024/04/04 13:23:38;;;;;;;0.50;0.50;;;;;;;16.49;86.66;98291.78;5092609;28;40503;-79
2024/04/04 13:26:04;;;;;;;2.13;1.17;;;;;;;16.51;87.05;98327.25;5092977;28;42149;-84
2024/04/04 13:28:32;;;;;;;1.73;0.80;;;;;;;16.29;88.23;98343.63;5093623;28;43179;-80
2024/04/04 13:31:00;;;;;;;1.53;0.57;;;;;;;15.97;85.55;98366.16;5109318;28;41132;-80
2024/04/04 13:33:27;;;;;;;1.93;0.40;;;;;;;15.65;83.91;98354.94;5092318;28;40465;-79
2024/04/04 13:35:54;;;;;;;1.27;0.50;;;;;;;15.34;84.03;98336.31;5092093;28;43492;-80
2024/04/04 13:38:21;;;;;;;0.23;0.23;;;;;;;15.33;83.55;98371.97;5092248;28;41230;-79
2024/04/04 13:40:48;;;;;;;0.30;0.30;;;;;;;15.00;82.76;98338.50;5092215;28;43217;-80
2024/04/04 13:43:15;;;;;;;0.40;0.40;;;;;;;15.04;83.55;98360.41;5091868;28;39069;-80
2024/04/04 13:45:42;;;;;;;0.93;0.27;;;;;;;14.88;84.17;98363.56;5109086;28;41555;-81
2024/04/04 13:48:15;;;;;;;0.97;0.40;;;;;;;14.85;85.27;98371.00;5091823;28;41762;-80
2024/04/04 13:50:41;;;;;;;0.30;0.30;;;;;;;14.67;85.71;98358.31;5092183;28;42219;-79
2024/04/04 13:53:09;;;;;;;1.27;0.40;;;;;;;14.54;86.57;98357.69;5093695;28;39897;-81
2024/04/04 13:55:36;;;;;;;1.40;0.50;;;;;;;14.55;87.23;98364.72;5092388;28;40595;-81
2024/04/04 13:58:04;;;;;;;0.93;0.37;;;;;;;14.39;88.10;98369.63;5074568;28;43218;-82
2024/04/04 14:00:30;;;;;;;0.60;0.50;;;;;;;14.20;88.85;98348.22;5092058;28;43396;-84
2024/04/04 14:02:58;;;;;;;0.37;0.30;;;;;;;14.20;89.49;98374.84;5074789;28;38940;-83
2024/04/04 14:05:28;;;;;;;0.40;0.40;;;;;;;14.14;90.36;98378.00;5093226;28;41721;-78
2024/04/04 14:07:54;;;;;;;1.07;0.60;;;;;;;14.07;91.94;98384.84;5092032;28;43116;-80
2024/04/04 14:10:22;;;;;;;1.87;0.90;;;;;;;13.99;92.18;98406.78;5092171;28;41092;-82
2024/04/04 14:12:49;;;;;;;2.30;0.80;;;;;;;13.81;92.90;98389.69;5092954;28;40928;-81
2024/04/04 14:15:16;;;;;;;0.50;0.40;;;;;;;13.82;93.86;98408.19;5109141;28;40623;-81
2024/04/04 14:17:43;;;;;;;0.80;0.50;;;;;;;13.80;94.41;98404.81;5108741;28;43151;-83
2024/04/04 14:20:15;;;;;;;1.33;0.87;;;;;;;13.74;95.47;98415.94;5075219;28;41728;-83
2024/04/04 14:22:44;;;;;;;0.73;0.40;;;;;;;13.64;95.93;98417.69;5074649;28;38903;-86
2024/04/04 14:25:12;;;;;;;1.17;0.50;;;;;;;13.51;95.51;98416.97;5093242;28;42001;-86
2024/04/04 14:27:39;;;;;;;1.43;0.33;;;;;;;13.34;96.56;98410.38;5074977;28;41709;-85
2024/04/04 14:30:08;;;;;;;0.63;0.40;;;;;;;13.19;96.88;98393.84;5075213;28;40899;-82
2024/04/04 14:32:36;;;;;;;1.03;0.70;;;;;;;13.19;97.30;98404.50;5074917;28;39254;-84
2024/04/04 14:35:04;;;;;;;0.47;0.47;;;;;;;13.11;97.38;98416.66;5091989;28;41886;-87
2024/04/04 14:37:31;;;;;;;0.90;0.60;;;;;;;12.97;98.38;98409.81;5074949;28;43248;-85
2024/04/04 14:40:00;;;;;;;1.83;0.43;;;;;;;12.89;98.39;98396.25;5075122;28;44154;-88
2024/04/04 14:42:27;;;;;;;0.50;0.50;;;;;;;12.91;98.67;98411.13;5074941;28;40281;-86
2024/04/04 14:44:54;;;;;;;0.50;0.30;;;;;;;12.82;98.30;98397.72;5091916;28;41087;-88
2024/04/04 14:47:21;;;;;;;0.40;0.40;;;;;;;12.78;98.48;98398.91;5074924;28;41773;-86
2024/04/04 14:49:49;;;;;;;0.57;0.50;;;;;;;12.72;99.27;98404.72;5092087;28;42882;-82
2024/04/04 14:52:17;;;;;;;0.83;0.40;;;;;;;12.70;100.00;98402.19;5092003;28;40926;-86
2024/04/04 14:54:43;;;;;;;0.83;0.47;;;;;;;12.76;99.57;98390.22;5074785;28;42117;-81
2024/04/04 14:57:12;;;;;;;0.43;0.40;;;;;;;12.70;100.00;98390.72;5091664;28;43168;-81
2024/04/04 14:59:39;;;;;;;3.53;0.60;;;;;;;12.72;100.00;98421.53;5074592;28;41540;-82
2024/04/04 15:02:06;;;;;;;0.63;0.53;;;;;;;12.70;100.00;98401.34;5092129;28;39929;-81
2024/04/04 15:04:33;;;;;;;0.60;0.50;;;;;;;12.50;99.99;98360.38;5126034;27;42929;-83
2024/04/04 15:07:01;;;;;;;0.70;0.50;;;;;;;12.73;100.00;98393.97;5091458;28;41242;-89
2024/04/04 15:09:27;;;;;;;1.03;0.40;;;;;;;12.60;100.00;98358.72;5074370;28;42915;-88
2024/04/04 15:11:56;;;;;;;0.73;0.40;;;;;;;12.48;100.00;98338.44;5074659;28;40681;-82
2024/04/04 15:14:24;;;;;;;0.30;0.30;;;;;;;12.70;100.00;98377.44;5074149;28;41665;-84
2024/04/04 15:16:51;;;;;;;0.80;0.40;;;;;;;12.65;100.00;98372.47;5091471;28;42640;-84
2024/04/04 15:19:18;;;;;;;1.03;0.37;;;;;;;12.68;100.00;98366.91;5091445;28;41502;-85
2024/04/04 15:21:46;;;;;;;2.40;0.50;;;;;;;12.70;100.00;98374.78;5074808;28;39367;-86
2024/04/04 15:24:12;;;;;;;0.50;0.40;;;;;;;12.67;100.00;98361.72;5092362;28;42329;-85
2024/04/04 15:26:40;;;;;;;0.50;0.40;;;;;;;12.79;99.84;98363.41;5108146;28;41890;-88
2024/04/04 15:29:06;;;;;;;1.40;0.47;;;;;;;12.86;100.00;98356.63;5091150;28;42278;-83
2024/04/04 15:31:36;;;;;;;2.23;0.60;;;;;;;13.08;99.84;98366.41;5074671;28;40164;-83
2024/04/04 15:34:04;;;;;;;0.27;0.27;;;;;;;13.35;99.21;98371.34;5091414;28;41587;-86
2024/04/04 15:36:31;;;;;;;0.47;0.47;;;;;;;13.68;99.38;98357.91;5094287;28;42982;-85
2024/04/04 15:38:58;;;;;;;1.00;0.40;;;;;;;14.15;98.83;98369.06;5077620;28;42281;-86
2024/04/04 15:41:25;;;;;;;0.87;0.67;;;;;;;14.45;98.95;98366.47;5078219;28;38619;-85
2024/04/04 15:43:52;;;;;;;0.90;0.50;;;;;;;14.66;97.50;98363.78;5077744;28;41002;-85
2024/04/04 15:46:20;;;;;;;1.23;0.60;;;;;;;14.89;96.30;98389.25;5095003;28;41886;-84
2024/04/04 15:48:47;;;;;;;1.13;0.60;;;;;;;14.76;95.41;98363.81;5094413;28;41749;-85
2024/04/04 15:51:15;;;;;;;0.90;0.53;;;;;;;14.84;94.79;98390.63;5094955;28;39139;-85
2024/04/04 15:53:42;;;;;;;1.20;0.70;;;;;;;14.80;94.19;98395.41;5094691;28;40971;-83
2024/04/04 15:56:10;;;;;;;1.90;0.83;;;;;;;14.66;93.93;98390.41;5094752;28;43722;-83
2024/04/04 15:58:36;;;;;;;0.37;0.37;;;;;;;14.51;94.02;98384.59;5077346;28;40755;-84
2024/04/04 16:01:05;;;;;;;2.73;0.63;;;;;;;14.52;92.84;98412.94;5077600;28;40919;-85
2024/04/04 16:03:31;;;;;;;1.27;0.50;;;;;;;14.37;92.93;98399.06;5077389;28;40808;-84
2024/04/04 16:06:00;;;;;;;3.43;0.70;;;;;;;14.44;92.19;98420.75;5077553;28;41929;-82
2024/04/04 16:08:27;;;;;;;2.40;0.70;;;;;;;14.28;93.59;98404.31;5094087;28;41071;-86
2024/04/04 16:10:55;;;;;;;0.97;0.43;;;;;;;14.22;93.31;98400.34;5077231;28;40122;-82
2024/04/04 16:13:23;;;;;;;0.50;0.50;;;;;;;14.35;93.55;98410.81;5093612;28;43106;-83
2024/04/04 16:15:51;;;;;;;0.70;0.50;;;;;;;14.31;92.93;98420.91;5128562;27;43032;-83
2024/04/04 16:18:18;;;;;;;0.63;0.33;;;;;;;14.22;93.03;98410.16;5128549;27;42215;-82
2024/04/04 16:20:45;;;;;;;1.13;0.60;;;;;;;14.22;92.83;98415.47;5093955;28;38893;-80
2024/04/04 16:23:13;;;;;;;0.63;0.60;;;;;;;14.19;92.59;98421.94;5094114;28;41781;-81
2024/04/04 16:25:41;;;;;;;0.60;0.40;;;;;;;14.23;92.22;98444.66;5094460;28;42688;-83
2024/04/04 16:28:09;;;;;;;0.40;0.40;;;;;;;14.21;91.88;98440.47;5076994;28;40938;-83
2024/04/04 16:30:36;;;;;;;0.27;0.27;;;;;;;14.21;91.83;98445.78;5093729;28;40089;-82
2024/04/04 16:33:03;;;;;;;0.60;0.30;;;;;;;14.27;91.90;98456.75;5095133;28;42211;-81
2024/04/04 16:35:31;;;;;;;0.97;0.53;;;;;;;14.13;91.87;98432.25;5111206;28;41618;-81
2024/04/04 16:37:57;;;;;;;0.37;0.37;;;;;;;14.25;91.68;98453.38;5093551;28;42558;-83
2024/04/04 16:40:26;;;;;;;1.17;0.50;;;;;;;14.17;91.90;98441.69;5093960;28;38840;-82
2024/04/04 16:42:53;;;;;;;1.00;0.50;;;;;;;14.25;91.18;98465.84;5093723;28;40805;-79
2024/04/04 16:45:21;;;;;;;0.33;0.27;;;;;;;14.25;91.23;98468.50;5093282;28;44002;-81
2024/04/04 16:47:47;;;;;;;1.43;0.50;;;;;;;14.14;90.89;98461.41;5109926;28;41085;-82
2024/04/04 16:50:15;;;;;;;0.40;0.40;;;;;;;14.19;91.12;98474.34;5094898;28;40164;-81
2024/04/04 16:52:41;;;;;;;0.40;0.40;;;;;;;14.15;91.06;98478.22;5127610;27;41875;-81
2024/04/04 16:55:09;;;;;;;1.50;0.40;;;;;;;14.15;90.67;98478.22;5076838;28;42007;-81
2024/04/04 16:57:37;;;;;;;0.77;0.40;;;;;;;14.03;91.02;98462.31;5076071;28;41051;-80
2024/04/04 17:00:05;;;;;;;0.60;0.60;;;;;;;14.01;90.79;98450.94;5093377;28;38738;-81
2024/04/04 17:02:32;;;;;;;0.67;0.50;;;;;;;14.09;90.79;98478.75;5093252;28;42820;-81
2024/04/04 17:05:00;;;;;;;1.10;0.43;;;;;;;14.03;90.95;98469.44;5076516;28;41844;-81
2024/04/04 17:07:26;;;;;;;0.50;0.43;;;;;;;14.03;91.24;98470.28;5076395;28;41151;-81
2024/04/04 17:09:54;;;;;;;0.30;0.30;;;;;;;13.84;91.18;98453.31;5094278;28;40193;-81
2024/04/04 17:12:22;;;;;;;1.87;0.70;;;;;;;13.97;91.47;98475.28;5092702;28;40898;-80
2024/04/04 17:14:51;;;;;;;0.40;0.40;;;;;;;13.93;91.17;98474.69;5092413;28;41826;-82
2024/04/04 17:17:17;;;;;;;1.07;0.50;;;;;;;13.90;91.46;98476.75;5110139;28;41641;-81
2024/04/04 17:19:45;;;;;;;0.50;0.50;;;;;;;13.73;91.56;98456.81;5127997;27;40959;-80
2024/04/04 17:22:11;;;;;;;0.30;0.30;;;;;;;13.82;91.21;98488.03;5083829;28;42810;-81
2024/04/04 17:24:39;;;;;;;1.07;0.70;;;;;;;13.75;91.42;98485.97;5100169;28;44102;-81
2024/04/04 17:27:06;;;;;;;0.97;0.50;;;;;;;13.68;91.84;98484.81;5129800;27;42920;-80
2024/04/04 17:29:35;;;;;;;1.03;0.40;;;;;;;13.70;91.83;98491.69;5078354;28;39187;-81
2024/04/04 17:32:04;;;;;;;0.83;0.40;;;;;;;13.60;91.82;98482.75;5127907;27;42941;-81
2024/04/04 17:34:31;;;;;;;2.10;0.60;;;;;;;13.50;92.03;98487.13;5093268;28;43785;-79
2024/04/04 17:36:58;;;;;;;0.43;0.43;;;;;;;13.54;92.38;98500.06;5093498;28;42215;-80
2024/04/04 17:39:25;;;;;;;1.53;0.97;;;;;;;13.48;92.56;98497.03;5092303;28;39806;-81
2024/04/04 17:41:52;;;;;;;2.30;0.47;;;;;;;13.21;92.52;98471.69;5109111;28;42236;-81
2024/04/04 17:44:21;;;;;;;0.97;0.70;;;;;;;13.34;93.10;98498.16;5091926;28;43020;-81
2024/04/04 17:46:48;;;;;;;0.93;0.50;;;;;;;13.22;93.39;98489.34;5093296;28;42775;-79
2024/04/04 17:49:17;;;;;;;1.47;0.60;;;;;;;13.23;93.65;98504.28;5091923;28;39091;-81
2024/04/04 17:51:45;;;;;;;1.33;0.80;;;;;;;13.11;93.66;98502.56;5093409;28;42698;-80
2024/04/04 17:54:13;;;;;;;1.27;0.70;;;;;;;13.02;93.62;98503.31;5074796;28;42901;-81
2024/04/04 17:56:39;;;;;;;1.10;0.70;;;;;;;13.06;94.28;98515.41;5075236;28;41408;-81
2024/04/04 17:59:07;;;;;;;1.00;0.70;;;;;;;12.99;94.35;98519.47;5090866;28;40470;-81
2024/04/04 18:01:35;;;;;;;0.90;0.60;;;;;;;12.95;94.26;98518.06;5109092;28;40245;-80
2024/04/04 18:04:02;;;;;;;0.57;0.57;;;;;;;12.89;94.56;98522.00;5092242;28;43071;-81
2024/04/04 18:06:31;;;;;;;0.87;0.77;;;;;;;12.83;94.64;98516.34;5092318;28;41216;-80
2024/04/04 18:08:57;;;;;;;1.03;0.80;;;;;;;12.70;95.08;98507.63;5092223;28;39141;-81
2024/04/04 18:11:25;;;;;;;1.03;0.67;;;;;;;12.51;95.52;98484.25;5075251;28;42199;-80
2024/04/04 18:13:51;;;;;;;2.10;0.67;;;;;;;12.43;95.82;98482.19;5091656;28;43211;-81
2024/04/04 18:16:19;;;;;;;0.93;0.63;;;;;;;12.71;96.62;98533.22;5075325;28;42660;-81
2024/04/04 18:18:46;;;;;;;0.80;0.73;;;;;;;12.65;96.96;98534.53;5108877;28;40037;-80
2024/04/04 18:21:14;;;;;;;1.30;0.90;;;;;;;12.64;96.62;98546.09;5075254;28;40567;-80
2024/04/04 18:23:42;;;;;;;0.83;0.83;;;;;;;12.24;96.24;98489.84;5092995;28;44102;-79
2024/04/04 18:26:10;;;;;;;1.10;1.00;;;;;;;12.55;96.29;98537.03;5092187;28;42425;-80
2024/04/04 18:28:36;;;;;;;1.13;0.97;;;;;;;12.55;96.95;98545.00;5108483;28;38904;-81
2024/04/04 18:31:05;;;;;;;1.17;0.80;;;;;;;12.45;96.98;98535.19;5126387;27;42644;-80
2024/04/04 18:33:31;;;;;;;1.53;0.80;;;;;;;12.52;96.84;98553.19;5092631;28;44098;-81
2024/04/04 18:35:59;;;;;;;1.27;0.90;;;;;;;12.52;96.32;98555.84;5108884;28;41569;-81
2024/04/04 18:38:26;;;;;;;0.73;0.73;;;;;;;12.48;96.47;98550.91;5074593;28;38758;-78
2024/04/04 18:40:54;;;;;;;0.80;0.80;;;;;;;12.42;97.27;98554.84;5093198;28;42561;-80
2024/04/04 18:43:27;;;;;;;1.37;0.87;;;;;;;12.38;97.55;98553.38;5090807;28;43034;-81
2024/04/04 18:45:54;;;;;;;2.23;1.10;;;;;;;12.36;97.56;98557.97;5092029;28;42447;-80
2024/04/04 18:48:22;;;;;;;3.27;1.20;;;;;;;12.32;98.95;98559.16;5125717;27;40025;-80